createdAt,value
2023-01-30T00:01:57.897Z,33.28
2023-01-30T00:04:24.536Z,33.30
2023-01-30T00:06:51.141Z,28.15
2023-01-30T00:09:17.831Z,29.40
2023-01-30T00:11:44.388Z,34.90
2023-01-30T00:14:10.982Z,36.65
2023-01-30T00:16:37.571Z,26.40
2023-01-30T00:19:04.179Z,31.58
2023-01-30T00:21:30.952Z,25.80
2023-01-30T00:23:57.552Z,25.35
2023-01-30T00:26:24.138Z,26.85
2023-01-30T00:28:50.755Z,31.77
2023-01-30T00:31:17.428Z,34.33
2023-01-30T00:33:44.013Z,27.88
2023-01-30T00:36:11.059Z,23.25
2023-01-30T00:38:37.695Z,31.00
2023-01-30T00:41:04.814Z,23.20
2023-01-30T00:43:49.947Z,24.75
2023-01-30T00:46:50.445Z,30.25
2023-01-30T00:49:17.337Z,25.65
2023-01-30T00:51:44.262Z,20.27
2023-01-30T00:54:10.888Z,28.75
2023-01-30T00:56:37.491Z,23.40
2023-01-30T00:59:04.050Z,28.45
2023-01-30T01:01:30.582Z,22.92
2023-01-30T01:03:57.123Z,25.00
2023-01-30T01:06:23.682Z,21.83
2023-01-30T01:08:50.270Z,17.38
2023-01-30T01:11:24.528Z,23.90
2023-01-30T01:13:56.443Z,21.45
2023-01-30T01:16:24.048Z,20.25
2023-01-30T01:18:51.355Z,21.90
2023-01-30T01:21:20.225Z,16.05
2023-01-30T01:23:54.994Z,18.80
2023-01-30T01:26:21.682Z,10.35
2023-01-30T01:28:48.472Z,20.50
2023-01-30T01:31:17.224Z,18.13
2023-01-30T01:33:44.085Z,21.20
2023-01-30T01:36:10.692Z,22.88
2023-01-30T01:38:37.711Z,17.30
2023-01-30T01:41:07.535Z,23.85
2023-01-30T01:43:58.510Z,17.42
2023-01-30T01:46:33.330Z,25.50
2023-01-30T01:49:05.800Z,23.55
2023-01-30T01:51:37.823Z,18.80
2023-01-30T01:54:16.994Z,19.40
2023-01-30T01:59:30.824Z,16.00
2023-01-30T02:02:03.715Z,20.02
2023-01-30T02:04:51.787Z,15.40
2023-01-30T02:07:20.996Z,23.92
2023-01-30T02:12:15.472Z,14.07
2023-01-30T02:14:43.653Z,17.85
2023-01-30T02:17:10.329Z,20.55
2023-01-30T02:19:51.932Z,15.55
2023-01-30T02:22:37.898Z,21.58
2023-01-30T02:25:26.252Z,18.70
2023-01-30T02:28:27.491Z,16.90
2023-01-30T02:31:09.303Z,19.67
2023-01-30T02:34:06.795Z,20.90
2023-01-30T02:36:42.513Z,19.38
2023-01-30T02:39:37.330Z,15.27
2023-01-30T02:42:12.688Z,20.58
2023-01-30T02:44:52.057Z,17.55
2023-01-30T02:47:29.251Z,28.77
2023-01-30T02:50:16.227Z,23.80
2023-01-30T02:52:43.335Z,20.63
2023-01-30T02:55:22.199Z,17.80
2023-01-30T02:57:48.771Z,15.85
2023-01-30T03:00:23.842Z,14.30
2023-01-30T03:03:15.826Z,21.60
2023-01-30T03:05:57.790Z,17.98
2023-01-30T03:08:34.169Z,26.80
2023-01-30T03:11:07.747Z,22.77
2023-01-30T03:13:52.975Z,12.65
2023-01-30T03:16:25.764Z,17.83
2023-01-30T03:18:52.446Z,12.32
2023-01-30T03:21:19.780Z,22.05
2023-01-30T03:23:46.957Z,22.02
2023-01-30T03:26:22.835Z,23.13
2023-01-30T03:28:50.933Z,21.02
2023-01-30T03:31:17.836Z,19.20
2023-01-30T03:33:44.475Z,17.42
2023-01-30T03:36:11.338Z,22.77
2023-01-30T03:38:38.103Z,20.70
2023-01-30T03:41:05.683Z,16.88
2023-01-30T03:43:32.256Z,22.10
2023-01-30T03:45:58.936Z,20.33
2023-01-30T03:48:25.577Z,24.58
2023-01-30T03:50:52.294Z,18.42
2023-01-30T03:53:18.878Z,13.90
2023-01-30T03:55:45.569Z,18.45
2023-01-30T03:58:12.227Z,17.27
2023-01-30T04:00:38.910Z,21.30
2023-01-30T04:03:05.468Z,27.02
2023-01-30T04:05:31.978Z,26.65
2023-01-30T04:07:58.954Z,19.13
2023-01-30T04:10:26.931Z,13.95
2023-01-30T04:12:53.538Z,23.13
2023-01-30T04:15:20.351Z,22.83
2023-01-30T04:17:47.945Z,16.63
2023-01-30T04:20:14.627Z,20.13
2023-01-30T04:22:41.317Z,21.20
2023-01-30T04:25:08.310Z,20.10
2023-01-30T04:27:34.970Z,20.92
2023-01-30T04:30:01.551Z,18.70
2023-01-30T04:32:28.070Z,20.33
2023-01-30T04:34:54.605Z,13.95
2023-01-30T04:37:21.155Z,28.10
2023-01-30T04:39:47.671Z,18.08
2023-01-30T04:42:15.208Z,21.42
2023-01-30T04:44:41.710Z,17.38
2023-01-30T04:47:08.291Z,10.93
2023-01-30T04:49:34.819Z,20.10
2023-01-30T04:52:01.467Z,17.27
2023-01-30T04:54:28.070Z,19.52
2023-01-30T04:56:54.656Z,16.58
2023-01-30T04:59:21.241Z,21.35
2023-01-30T05:01:47.813Z,21.50
2023-01-30T05:04:14.475Z,17.75
2023-01-30T05:06:41.140Z,27.20
2023-01-30T05:09:07.837Z,15.95
2023-01-30T05:11:34.756Z,21.42
2023-01-30T05:14:01.586Z,21.35
2023-01-30T05:16:28.465Z,22.33
2023-01-30T05:18:55.044Z,17.92
2023-01-30T05:21:26.003Z,16.67
2023-01-30T05:23:53.544Z,18.55
2023-01-30T05:26:20.772Z,29.30
2023-01-30T05:28:52.331Z,17.00
2023-01-30T05:31:19.418Z,24.65
2023-01-30T05:33:48.538Z,18.73
2023-01-30T05:36:17.635Z,19.23
2023-01-30T05:41:12.352Z,16.02
2023-01-30T05:43:39.125Z,17.30
2023-01-30T05:46:07.020Z,25.58
2023-01-30T05:48:33.998Z,30.17
2023-01-30T05:51:01.217Z,27.15
2023-01-30T05:53:31.740Z,22.10
2023-01-30T05:56:04.418Z,24.85
2023-01-30T05:58:32.082Z,20.17
2023-01-30T06:01:03.440Z,19.23
2023-01-30T06:03:31.391Z,22.45
2023-01-30T06:05:58.460Z,28.83
2023-01-30T06:08:25.159Z,17.00
2023-01-30T06:10:51.768Z,18.02
2023-01-30T06:13:18.524Z,20.13
2023-01-30T06:15:45.727Z,17.85
2023-01-30T06:18:12.412Z,22.35
2023-01-30T06:20:39.069Z,28.20
2023-01-30T06:23:05.651Z,21.70
2023-01-30T06:25:32.208Z,23.45
2023-01-30T06:27:58.708Z,26.45
2023-01-30T06:30:25.309Z,22.25
2023-01-30T06:32:52.178Z,26.27
2023-01-30T06:35:19.272Z,22.45
2023-01-30T06:37:46.185Z,22.60
2023-01-30T06:40:13.496Z,29.55
2023-01-30T06:42:45.175Z,17.33
2023-01-30T06:45:12.917Z,16.80
2023-01-30T06:47:49.558Z,20.08
2023-01-30T06:50:18.242Z,25.23
2023-01-30T06:52:46.390Z,18.23
2023-01-30T06:55:15.573Z,24.13
2023-01-30T06:57:43.183Z,19.52
2023-01-30T07:00:14.332Z,24.70
2023-01-30T07:02:41.375Z,27.73
2023-01-30T07:05:09.499Z,26.40
2023-01-30T07:07:37.111Z,21.42
2023-01-30T07:10:08.655Z,27.35
2023-01-30T07:12:36.342Z,36.55
2023-01-30T07:15:03.271Z,34.28
2023-01-30T07:17:30.016Z,26.15
2023-01-30T07:19:56.872Z,26.33
2023-01-30T07:22:23.726Z,22.08
2023-01-30T07:24:50.331Z,37.22
2023-01-30T07:27:17.173Z,37.25
2023-01-30T07:29:43.772Z,29.33
2023-01-30T07:32:16.916Z,89.15
2023-01-30T07:34:43.751Z,76.97
2023-01-30T07:37:10.525Z,122.38
2023-01-30T07:39:37.166Z,116.38
2023-01-30T07:42:04.183Z,74.15
2023-01-30T07:44:31.693Z,33.20
2023-01-30T07:46:58.355Z,32.80
2023-01-30T07:49:24.981Z,31.85
2023-01-30T07:51:52.722Z,34.15
2023-01-30T07:54:19.357Z,30.63
2023-01-30T07:56:46.363Z,28.85
2023-01-30T07:59:13.542Z,28.95
2023-01-30T08:01:40.208Z,34.33
2023-01-30T08:04:07.093Z,25.25
2023-01-30T08:06:38.975Z,27.52
2023-01-30T08:09:07.135Z,26.98
2023-01-30T08:11:34.806Z,32.78
2023-01-30T08:14:02.003Z,30.48
2023-01-30T08:16:28.721Z,41.03
2023-01-30T08:18:55.363Z,33.97
2023-01-30T08:21:21.984Z,30.38
2023-01-30T08:23:48.642Z,28.08
2023-01-30T08:26:15.399Z,30.38
2023-01-30T08:28:42.395Z,33.33
2023-01-30T08:31:11.258Z,28.08
2023-01-30T08:33:38.222Z,27.45
2023-01-30T08:36:05.335Z,35.38
2023-01-30T08:38:31.890Z,35.22
2023-01-30T08:40:59.450Z,25.90
2023-01-30T08:43:26.144Z,40.33
2023-01-30T08:45:56.820Z,26.27
2023-01-30T08:48:23.615Z,25.60
2023-01-30T08:50:54.655Z,25.45
2023-01-30T08:53:21.389Z,25.08
2023-01-30T08:55:52.583Z,33.50
2023-01-30T08:58:20.840Z,40.83
2023-01-30T09:00:50.206Z,34.03
2023-01-30T09:03:18.387Z,52.80
2023-01-30T09:05:45.265Z,51.20
2023-01-30T09:08:12.280Z,50.83
2023-01-30T09:10:39.094Z,40.88
2023-01-30T09:13:08.414Z,42.00
2023-01-30T09:15:35.054Z,50.97
2023-01-30T09:18:01.636Z,48.85
2023-01-30T09:20:28.343Z,41.70
2023-01-30T09:22:54.982Z,34.85
2023-01-30T09:25:21.716Z,38.83
2023-01-30T09:27:50.079Z,38.63
2023-01-30T09:30:17.640Z,40.07
2023-01-30T09:32:44.515Z,38.05
2023-01-30T09:35:11.444Z,43.25
2023-01-30T09:37:38.088Z,45.28
2023-01-30T09:40:05.271Z,43.05
2023-01-30T09:42:57.687Z,41.92
2023-01-30T09:45:38.359Z,39.40
2023-01-30T09:48:29.454Z,48.33
2023-01-30T09:51:10.944Z,42.42
2023-01-30T09:54:01.106Z,35.15
2023-01-30T09:56:28.057Z,40.42
2023-01-30T09:58:57.483Z,31.80
2023-01-30T10:01:35.984Z,39.42
2023-01-30T10:04:02.955Z,31.80
2023-01-30T10:06:33.386Z,28.10
2023-01-30T10:09:30.681Z,31.02
2023-01-30T10:12:22.088Z,32.30
2023-01-30T10:15:20.191Z,31.77
2023-01-30T10:18:20.892Z,33.95
2023-01-30T10:21:12.615Z,39.10
2023-01-30T10:24:05.212Z,36.80
2023-01-30T10:26:32.034Z,32.47
2023-01-30T10:29:07.568Z,33.97
2023-01-30T10:31:46.506Z,35.08
2023-01-30T10:34:16.673Z,32.15
2023-01-30T10:36:47.239Z,33.58
2023-01-30T10:39:54.191Z,38.95
2023-01-30T10:42:29.203Z,30.17
2023-01-30T10:45:11.107Z,35.17
2023-01-30T10:47:50.903Z,38.28
2023-01-30T10:50:21.727Z,38.33
2023-01-30T10:52:57.869Z,33.80
2023-01-30T10:55:44.565Z,33.05
2023-01-30T10:58:24.153Z,30.10
2023-01-30T11:01:02.587Z,29.60
2023-01-30T11:03:38.047Z,31.40
2023-01-30T11:06:13.771Z,28.10
2023-01-30T11:08:40.340Z,24.17
2023-01-30T11:11:31.467Z,35.03
2023-01-30T11:14:16.398Z,31.27
2023-01-30T11:16:55.476Z,27.17
2023-01-30T11:19:30.435Z,32.65
2023-01-30T11:22:02.167Z,33.10
2023-01-30T11:24:47.060Z,29.48
2023-01-30T11:27:25.752Z,29.70
2023-01-30T11:30:06.294Z,32.65
2023-01-30T11:32:32.946Z,32.03
2023-01-30T11:35:08.543Z,30.73
2023-01-30T11:37:42.473Z,43.17
2023-01-30T11:40:18.608Z,30.83
2023-01-30T11:42:51.528Z,37.42
2023-01-30T11:45:19.731Z,33.42
2023-01-30T11:48:02.936Z,34.75
2023-01-30T11:50:44.767Z,35.72
2023-01-30T11:53:25.901Z,35.50
2023-01-30T11:56:05.293Z,38.25
2023-01-30T11:58:36.269Z,36.60
2023-01-30T12:03:30.478Z,40.47
2023-01-30T12:05:58.925Z,40.70
2023-01-30T12:08:41.871Z,40.40
2023-01-30T12:11:24.680Z,37.45
2023-01-30T12:13:53.559Z,37.28
2023-01-30T12:16:25.273Z,41.70
2023-01-30T12:19:04.045Z,44.92
2023-01-30T12:21:52.545Z,50.10
2023-01-30T12:24:39.983Z,42.05
2023-01-30T12:27:31.030Z,46.83
2023-01-30T12:30:12.567Z,37.40
2023-01-30T12:32:39.222Z,44.33
2023-01-30T12:35:18.948Z,44.78
2023-01-30T12:38:10.366Z,45.00
2023-01-30T12:41:23.611Z,51.10
2023-01-30T12:44:11.126Z,45.45
2023-01-30T12:46:49.659Z,41.70
2023-01-30T12:49:25.060Z,45.17
2023-01-30T12:52:00.704Z,37.53
2023-01-30T12:54:33.258Z,44.38
2023-01-30T12:57:17.181Z,53.28
2023-01-30T13:00:02.071Z,45.83
2023-01-30T13:02:45.850Z,45.85
2023-01-30T13:05:51.289Z,51.97
2023-01-30T13:08:52.436Z,46.28
2023-01-30T13:11:57.873Z,47.28
2023-01-30T13:14:52.714Z,43.80
2023-01-30T13:18:00.910Z,55.65
2023-01-30T13:20:43.763Z,52.40
2023-01-30T13:23:19.544Z,40.75
2023-01-30T13:25:49.242Z,43.28
2023-01-30T13:28:26.039Z,45.55
2023-01-30T13:30:55.061Z,50.35
2023-01-30T13:33:28.665Z,50.00
2023-01-30T13:36:07.637Z,42.20
2023-01-30T13:41:03.979Z,42.83
2023-01-30T13:43:36.812Z,43.55
2023-01-30T13:46:08.847Z,55.78
2023-01-30T13:48:38.563Z,47.67
2023-01-30T13:51:15.072Z,45.13
2023-01-30T13:53:59.050Z,42.05
2023-01-30T13:56:43.154Z,50.63
2023-01-30T13:59:15.762Z,47.90
2023-01-30T14:02:04.120Z,48.60
2023-01-30T14:04:36.903Z,42.67
2023-01-30T14:07:15.824Z,54.05
2023-01-30T14:12:26.104Z,46.15
2023-01-30T14:15:17.475Z,39.75
2023-01-30T14:18:03.083Z,50.00
2023-01-30T14:20:35.249Z,44.45
2023-01-30T14:23:10.840Z,52.40
2023-01-30T14:25:47.479Z,41.90
2023-01-30T14:28:13.994Z,52.40
2023-01-30T14:30:54.921Z,46.13
2023-01-30T14:33:21.495Z,50.60
2023-01-30T14:36:03.119Z,44.30
2023-01-30T14:38:34.447Z,44.90
2023-01-30T14:41:01.017Z,51.03
2023-01-30T14:43:42.952Z,44.05
2023-01-30T14:46:15.646Z,46.50
2023-01-30T14:48:51.890Z,47.80
2023-01-30T14:51:44.352Z,47.60
2023-01-30T14:54:16.632Z,54.20
2023-01-30T14:57:03.519Z,54.13
2023-01-30T14:59:37.741Z,43.40
2023-01-30T15:02:13.707Z,47.70
2023-01-30T15:05:02.357Z,45.35
2023-01-30T15:07:49.436Z,44.20
2023-01-30T15:10:49.954Z,51.75
2023-01-30T15:13:28.480Z,46.67
2023-01-30T15:16:32.072Z,44.15
2023-01-30T15:19:04.970Z,46.17
2023-01-30T15:21:39.797Z,51.30
2023-01-30T15:24:15.449Z,53.70
2023-01-30T15:27:20.997Z,48.20
2023-01-30T15:29:53.259Z,48.03
2023-01-30T15:32:23.207Z,48.15
2023-01-30T15:35:11.538Z,48.47
2023-01-30T15:37:53.739Z,47.33
2023-01-30T15:40:25.046Z,51.17
2023-01-30T15:43:35.512Z,45.25
2023-01-30T15:46:21.969Z,47.53
2023-01-30T15:49:06.430Z,53.05
2023-01-30T15:51:34.919Z,51.42
2023-01-30T15:54:08.424Z,56.58
2023-01-30T15:56:35.291Z,59.67
2023-01-30T15:59:02.875Z,50.20
2023-01-30T16:01:30.586Z,49.10
2023-01-30T16:04:00.219Z,57.30
2023-01-30T16:06:32.712Z,54.63
2023-01-30T16:09:06.510Z,50.05
2023-01-30T16:11:36.822Z,50.75
2023-01-30T16:14:03.499Z,45.42
2023-01-30T16:16:31.793Z,49.50
2023-01-30T16:19:05.028Z,53.83
2023-01-30T16:21:34.442Z,55.58
2023-01-30T16:24:17.892Z,59.10
2023-01-30T16:26:51.398Z,50.63
2023-01-30T16:29:23.003Z,60.75
2023-01-30T16:31:51.421Z,51.47
2023-01-30T16:34:35.453Z,70.68
2023-01-30T16:37:26.555Z,59.72
2023-01-30T16:40:13.685Z,61.85
2023-01-30T16:42:41.068Z,57.85
2023-01-30T16:45:10.331Z,58.13
2023-01-30T16:47:37.654Z,49.83
2023-01-30T16:50:05.334Z,49.97
2023-01-30T16:52:37.086Z,46.05
2023-01-30T16:55:08.217Z,50.60
2023-01-30T16:57:45.682Z,47.53
2023-01-30T17:00:25.876Z,50.58
2023-01-30T17:02:58.433Z,56.50
2023-01-30T17:05:40.734Z,44.55
2023-01-30T17:08:33.199Z,55.00
2023-01-30T17:11:03.885Z,45.60
2023-01-30T17:13:41.764Z,49.30
2023-01-30T17:16:33.422Z,59.10
2023-01-30T17:19:01.102Z,50.80
2023-01-30T17:21:37.086Z,54.22
2023-01-30T17:24:05.325Z,68.80
2023-01-30T17:26:32.850Z,66.77
2023-01-30T17:28:59.600Z,51.42
2023-01-30T17:31:27.082Z,56.85
2023-01-30T17:33:53.789Z,52.10
2023-01-30T17:36:27.043Z,47.35
2023-01-30T17:38:54.205Z,53.83
2023-01-30T17:41:24.099Z,55.42
2023-01-30T17:43:51.026Z,56.63
2023-01-30T17:46:18.290Z,59.92
2023-01-30T17:48:45.187Z,57.30
2023-01-30T17:51:14.329Z,49.58
2023-01-30T17:56:31.040Z,52.42
2023-01-30T17:58:57.635Z,58.38
2023-01-30T18:01:24.350Z,62.13
2023-01-30T18:03:50.897Z,56.75
2023-01-30T18:06:18.275Z,57.78
2023-01-30T18:08:45.009Z,64.35
2023-01-30T18:11:12.362Z,51.55
2023-01-30T18:13:40.106Z,70.55
2023-01-30T18:16:07.022Z,53.13
2023-01-30T18:18:33.990Z,51.33
2023-01-30T18:21:00.713Z,69.88
2023-01-30T18:23:27.401Z,51.47
2023-01-30T18:25:53.987Z,52.97
2023-01-30T18:28:20.519Z,71.35
2023-01-30T18:30:47.201Z,55.28
2023-01-30T18:33:13.922Z,49.63
2023-01-30T18:35:41.475Z,57.15
2023-01-30T18:38:08.308Z,56.95
2023-01-30T18:40:37.202Z,40.92
2023-01-30T18:43:03.777Z,49.20
2023-01-30T18:45:30.380Z,46.47
2023-01-30T18:47:57.083Z,47.60
2023-01-30T18:50:23.639Z,41.67
2023-01-30T18:52:50.707Z,50.78
2023-01-30T18:55:17.424Z,40.38
2023-01-30T18:57:43.951Z,43.72
2023-01-30T19:00:11.053Z,46.92
2023-01-30T19:02:37.984Z,56.90
2023-01-30T19:05:04.739Z,53.83
2023-01-30T19:07:33.418Z,52.97
2023-01-30T19:10:00.018Z,58.25
2023-01-30T19:12:45.296Z,71.93
2023-01-30T19:15:12.046Z,45.40
2023-01-30T19:17:38.606Z,49.90
2023-01-30T19:20:10.776Z,51.55
2023-01-30T19:22:38.776Z,50.28
2023-01-30T19:25:06.015Z,38.03
2023-01-30T19:27:36.717Z,43.75
2023-01-30T19:30:04.187Z,42.72
2023-01-30T19:32:31.258Z,36.20
2023-01-30T19:34:57.974Z,43.47
2023-01-30T19:37:24.772Z,47.45
2023-01-30T19:39:51.623Z,39.60
2023-01-30T19:42:18.197Z,47.30
2023-01-30T19:44:44.934Z,46.60
2023-01-30T19:47:11.878Z,52.05
2023-01-30T19:49:38.686Z,39.72
2023-01-30T19:52:05.353Z,51.15
2023-01-30T19:54:32.827Z,51.67
2023-01-30T19:56:59.998Z,46.63
2023-01-30T19:59:26.822Z,46.50
2023-01-30T20:01:53.498Z,37.90
2023-01-30T20:04:20.105Z,40.97
2023-01-30T20:06:46.788Z,51.58
2023-01-30T20:09:16.162Z,51.78
2023-01-30T20:11:42.819Z,44.15
2023-01-30T20:14:10.817Z,41.53
2023-01-30T20:16:37.832Z,46.55
2023-01-30T20:19:12.454Z,46.60
2023-01-30T20:21:39.178Z,41.10
2023-01-30T20:24:07.065Z,44.38
2023-01-30T20:26:39.892Z,42.30
2023-01-30T20:29:08.808Z,45.38
2023-01-30T20:31:38.392Z,49.25
2023-01-30T20:34:08.106Z,40.85
2023-01-30T20:36:34.844Z,45.10
2023-01-30T20:39:04.123Z,42.80
2023-01-30T20:41:33.377Z,43.70
2023-01-30T20:46:30.014Z,44.60
2023-01-30T20:51:35.233Z,36.47
2023-01-30T20:54:05.333Z,45.50
2023-01-30T20:56:53.328Z,44.33
2023-01-30T20:59:24.112Z,50.30
2023-01-30T21:01:52.112Z,47.33
2023-01-30T21:04:20.013Z,61.17
2023-01-30T21:06:47.263Z,51.03
2023-01-30T21:09:22.050Z,60.00
2023-01-30T21:11:50.007Z,41.10
2023-01-30T21:14:17.375Z,36.28
2023-01-30T21:16:45.034Z,46.92
2023-01-30T21:19:15.839Z,44.10
2023-01-30T21:21:51.358Z,46.67
2023-01-30T21:24:24.281Z,53.72
2023-01-30T21:26:51.378Z,42.05
2023-01-30T21:29:21.052Z,38.22
2023-01-30T21:31:47.853Z,45.10
2023-01-30T21:34:14.916Z,46.33
2023-01-30T21:36:41.987Z,43.22
2023-01-30T21:39:31.771Z,43.17
2023-01-30T21:42:16.960Z,42.53
2023-01-30T21:44:43.571Z,42.97
2023-01-30T21:47:10.130Z,40.13
2023-01-30T21:49:36.978Z,41.15
2023-01-30T21:52:04.037Z,42.67
2023-01-30T21:54:30.624Z,43.85
2023-01-30T21:56:57.177Z,36.17
2023-01-30T21:59:23.724Z,37.88
2023-01-30T22:01:50.894Z,36.97
2023-01-30T22:04:17.861Z,38.60
2023-01-30T22:06:44.565Z,37.67
2023-01-30T22:09:15.557Z,44.22
2023-01-30T22:11:43.242Z,44.03
2023-01-30T22:14:13.275Z,46.15
2023-01-30T22:16:40.297Z,37.03
2023-01-30T22:19:06.962Z,39.38
2023-01-30T22:21:36.389Z,34.47
2023-01-30T22:24:05.559Z,41.55
2023-01-30T22:29:00.824Z,38.28
2023-01-30T22:31:31.800Z,36.77
2023-01-30T22:33:58.404Z,33.88
2023-01-30T22:36:27.831Z,39.13
2023-01-30T22:38:54.843Z,37.33
2023-01-30T22:41:25.163Z,32.40
2023-01-30T22:43:57.514Z,31.88
2023-01-30T22:46:26.383Z,32.58
2023-01-30T22:48:54.114Z,35.25
2023-01-30T22:51:22.311Z,38.05
2023-01-30T22:54:00.253Z,45.72
2023-01-30T22:56:31.335Z,42.00
2023-01-30T22:58:57.878Z,35.75
2023-01-30T23:01:29.926Z,33.58
2023-01-30T23:03:59.134Z,31.77
2023-01-30T23:08:54.453Z,35.17
2023-01-30T23:11:33.438Z,38.90
2023-01-30T23:14:15.892Z,43.42
2023-01-30T23:16:44.890Z,38.60
2023-01-30T23:19:13.183Z,40.08
2023-01-30T23:21:42.765Z,38.75
2023-01-30T23:24:14.343Z,38.17
2023-01-30T23:26:43.805Z,39.08
2023-01-30T23:29:15.707Z,34.47
2023-01-30T23:31:44.328Z,32.80
2023-01-30T23:39:36.499Z,37.35
2023-01-30T23:42:03.254Z,44.03
2023-01-30T23:44:29.836Z,34.63
2023-01-30T23:46:56.677Z,25.20
2023-01-30T23:49:23.168Z,45.72
2023-01-30T23:51:51.076Z,39.08
2023-01-30T23:54:17.747Z,30.65
2023-01-30T23:56:44.995Z,39.75
2023-01-30T23:59:12.341Z,36.42
